Dog Valley, California Weather observations

Data are for 10 minute period ending at time listed.
 Day   Time    Ave.   Ave.  Ave.  Vector   Max.   Total    Solar   
  of    of     Air    Rel.  Wind   Wind    Wind  Precip.   Rad.    
Year   Day     Temp.  Hum.  Speed  Dir.    Gust                    
2015   (PST)    F      %     mph   deg.    mph     in.     W/m2    
------------------------------------------------------------------- 
 184    8:00   70.0    70    1.0   237      7.0    4.61     292  
 184    9:00   78.0    48    1.0   161      6.0    4.61     441  
 184   10:00   81.0    42    2.0    51      6.0    4.61     741  
 184   11:00   83.0    36    1.0   145      6.0    4.61     770  
 184   12:00   84.0    36    1.0   120      7.0    4.61     778  
 184   13:00   81.0    47    3.0   297     12.0    4.61     503  
 184   14:00   66.0    76    2.0   182     15.0    4.79      80  
 184   15:00   72.0    87    1.0   189      9.0    5.14     429  
 184   16:00   79.0    49    1.0   321     10.0    5.14     773  
 184   17:00   82.0    44    1.0    37      6.0    5.14     540  
 184   18:00   78.0    41    2.0   298      8.0    5.14     294  
 184   19:00   74.0    58    2.0   286      9.0    5.14      94  
 184   20:00   72.0    64    0.0   338      9.0    5.14      30  
 184   21:00   65.0    81    1.0   303      6.0    5.14       0  
 184   22:00   62.0    86    0.0   291      4.0    5.14       0  
 184   23:00   58.0    94    0.0   289      2.0    5.14       0  
 185    0:00   56.0    96    0.0   227      2.0    5.14       0  
 185    1:00   54.0    94    0.0   298      2.0    5.14       0  
 185    2:00   56.0    91    1.0   291      3.0    5.14       0  
 185    3:00   54.0    91    0.0   289      3.0    5.14       0  
 185    4:00   54.0    94    0.0   292      3.0    5.14       0  
 185    5:00   54.0    85    1.0   298      3.0    5.14       1  
 185    6:00   56.0    85    1.0   286      3.0    5.14      32  
 185    7:00   61.0    85    0.0   234      3.0    5.14      90  

Return to Dog Valley, California graphs page.


Western Regional Climate Center,wrcc@dri.edu